createdAt,value
2018-04-02T00:00:54.171Z,94.70
2018-04-02T00:02:58.463Z,95.10
2018-04-02T00:05:02.006Z,95.10
2018-04-02T00:07:05.604Z,94.50
2018-04-02T00:09:09.188Z,94.00
2018-04-02T00:11:12.788Z,93.40
2018-04-02T00:13:16.396Z,92.90
2018-04-02T00:15:19.960Z,94.50
2018-04-02T00:17:24.298Z,95.50
2018-04-02T00:19:27.905Z,95.50
2018-04-02T00:21:31.485Z,95.80
2018-04-02T00:23:35.088Z,95.40
2018-04-02T00:25:38.663Z,95.60
2018-04-02T00:27:42.216Z,95.60
2018-04-02T00:29:45.780Z,95.50
2018-04-02T00:31:49.415Z,95.50
2018-04-02T00:33:52.953Z,95.50
2018-04-02T00:35:57.253Z,95.60
2018-04-02T00:38:01.982Z,95.60
2018-04-02T00:40:06.938Z,95.80
2018-04-02T00:42:10.452Z,95.80
2018-04-02T00:44:14.039Z,95.60
2018-04-02T00:46:17.595Z,95.40
2018-04-02T00:48:21.578Z,95.40
2018-04-02T00:50:25.076Z,95.50
2018-04-02T00:52:28.594Z,95.90
2018-04-02T00:54:32.926Z,95.70
2018-04-02T00:56:36.452Z,95.60
2018-04-02T00:58:40.372Z,95.60
2018-04-02T01:00:43.926Z,95.60
2018-04-02T01:02:47.493Z,95.70
2018-04-02T01:04:51.867Z,95.60
2018-04-02T01:06:55.398Z,95.50
2018-04-02T01:08:59.704Z,95.60
2018-04-02T01:11:03.280Z,95.50
2018-04-02T01:13:07.671Z,95.70
2018-04-02T01:15:11.270Z,95.70
2018-04-02T01:17:14.846Z,95.80
2018-04-02T01:19:18.400Z,95.70
2018-04-02T01:21:21.949Z,95.90
2018-04-02T01:23:25.523Z,95.80
2018-04-02T01:25:29.104Z,95.40
2018-04-02T01:27:32.673Z,95.60
2018-04-02T01:29:36.249Z,95.60
2018-04-02T01:31:39.922Z,95.40
2018-04-02T01:33:43.477Z,95.40
2018-04-02T01:35:47.048Z,95.40
2018-04-02T01:37:50.599Z,95.20
2018-04-02T01:39:54.220Z,95.50
2018-04-02T01:41:57.839Z,95.40
2018-04-02T01:44:01.409Z,95.20
2018-04-02T01:46:09.244Z,95.00
2018-04-02T01:48:12.870Z,94.80
2018-04-02T01:50:17.184Z,94.10
2018-04-02T01:52:20.777Z,94.20
2018-04-02T01:54:25.112Z,93.60
2018-04-02T01:56:28.664Z,93.60
2018-04-02T01:58:33.418Z,94.20
2018-04-02T02:00:37.707Z,93.60
2018-04-02T02:02:42.038Z,93.70
2018-04-02T02:04:45.650Z,93.70
2018-04-02T02:06:49.216Z,93.70
2018-04-02T02:08:52.793Z,93.30
2018-04-02T02:10:56.348Z,93.40
2018-04-02T02:12:59.872Z,93.60
2018-04-02T02:15:03.507Z,93.10
2018-04-02T02:17:07.827Z,93.30
2018-04-02T02:19:12.189Z,93.90
2018-04-02T02:21:15.781Z,93.90
2018-04-02T02:23:19.333Z,94.20
2018-04-02T02:25:23.683Z,93.50
2018-04-02T02:27:27.257Z,93.50
2018-04-02T02:29:30.784Z,93.50
2018-04-02T02:31:34.347Z,93.30
2018-04-02T02:33:37.947Z,93.30
2018-04-02T02:35:41.535Z,93.40
2018-04-02T02:37:45.355Z,93.60
2018-04-02T02:39:49.117Z,93.60
2018-04-02T02:41:52.675Z,93.30
2018-04-02T02:43:56.271Z,93.30
2018-04-02T02:45:59.823Z,93.30
2018-04-02T02:48:03.433Z,93.40
2018-04-02T02:50:07.319Z,93.60
2018-04-02T02:52:11.633Z,93.00
2018-04-02T02:54:15.173Z,93.00
2018-04-02T02:56:18.725Z,93.50
2018-04-02T02:58:23.028Z,93.30
2018-04-02T03:00:26.645Z,93.30
2018-04-02T03:02:30.219Z,93.30
2018-04-02T03:04:34.525Z,93.40
2018-04-02T03:06:38.167Z,93.40
2018-04-02T03:08:41.750Z,93.60
2018-04-02T03:10:45.272Z,93.10
2018-04-02T03:12:48.853Z,93.20
2018-04-02T03:14:53.194Z,93.10
2018-04-02T03:16:56.738Z,93.10
2018-04-02T03:19:00.308Z,93.20
2018-04-02T03:21:03.870Z,93.40
2018-04-02T03:23:07.495Z,93.40
2018-04-02T03:25:11.013Z,93.30
2018-04-02T03:27:15.309Z,92.90
2018-04-02T03:29:18.892Z,92.90
2018-04-02T03:31:22.405Z,93.20
2018-04-02T03:33:25.981Z,93.00
2018-04-02T03:35:29.584Z,92.90
2018-04-02T03:37:33.125Z,93.30
2018-04-02T03:39:36.689Z,93.40
2018-04-02T03:41:40.261Z,95.00
2018-04-02T03:43:44.110Z,94.90
2018-04-02T03:45:47.689Z,95.30
2018-04-02T03:47:52.041Z,95.80
2018-04-02T03:49:55.597Z,95.70
2018-04-02T03:51:59.983Z,94.20
2018-04-02T03:54:03.581Z,94.20
2018-04-02T03:56:07.136Z,95.20
2018-04-02T03:58:10.715Z,96.30
2018-04-02T04:00:15.016Z,96.30
2018-04-02T04:02:19.820Z,96.90
2018-04-02T04:04:23.480Z,96.90
2018-04-02T04:06:27.099Z,97.40
2018-04-02T04:08:30.746Z,97.10
2018-04-02T04:10:34.303Z,96.90
2018-04-02T04:12:37.860Z,98.30
2018-04-02T04:14:41.458Z,97.40
2018-04-02T04:16:45.041Z,97.10
2018-04-02T04:18:48.621Z,96.20
2018-04-02T04:20:52.976Z,95.60
2018-04-02T04:22:56.586Z,95.60
2018-04-02T04:25:00.209Z,96.30
2018-04-02T04:27:03.861Z,96.20
2018-04-02T04:29:07.449Z,95.70
2018-04-02T04:31:11.428Z,97.10
2018-04-02T04:33:15.809Z,96.40
2018-04-02T04:35:19.361Z,96.70
2018-04-02T04:37:22.920Z,95.40
2018-04-02T04:39:26.453Z,94.80
2018-04-02T04:41:30.107Z,94.10
2018-04-02T04:43:33.876Z,94.40
2018-04-02T04:45:38.677Z,94.70
2018-04-02T04:47:42.248Z,94.70
2018-04-02T04:49:47.243Z,94.60
2018-04-02T04:51:51.492Z,94.60
2018-04-02T04:53:56.462Z,94.70
2018-04-02T04:56:00.818Z,94.40
2018-04-02T04:58:04.418Z,94.40
2018-04-02T05:00:09.772Z,94.60
2018-04-02T05:02:13.497Z,94.50
2018-04-02T05:04:17.052Z,94.30
2018-04-02T05:06:20.618Z,94.30
2018-04-02T05:08:24.447Z,94.10
2018-04-02T05:10:29.537Z,94.50
2018-04-02T05:12:34.640Z,94.50
2018-04-02T05:14:38.213Z,94.50
2018-04-02T05:16:41.793Z,94.50
2018-04-02T05:18:45.840Z,94.30
2018-04-02T05:20:50.540Z,93.90
2018-04-02T05:22:54.833Z,94.00
2018-04-02T05:24:58.393Z,94.00
2018-04-02T05:27:01.995Z,94.10
2018-04-02T05:29:05.536Z,94.10
2018-04-02T05:31:09.098Z,94.20
2018-04-02T05:33:12.712Z,94.10
2018-04-02T05:35:17.328Z,94.10
2018-04-02T05:37:20.944Z,94.20
2018-04-02T05:39:24.537Z,94.20
2018-04-02T05:41:28.069Z,94.00
2018-04-02T05:43:31.657Z,94.10
2018-04-02T05:45:36.001Z,94.30
2018-04-02T05:47:39.572Z,94.20
2018-04-02T05:49:43.211Z,94.10
2018-04-02T05:51:46.799Z,94.20
2018-04-02T05:53:50.335Z,94.20
2018-04-02T05:55:54.739Z,94.40
2018-04-02T05:57:58.374Z,94.30
2018-04-02T06:00:03.419Z,94.10
2018-04-02T06:02:08.686Z,94.20
2018-04-02T06:04:12.277Z,94.20
2018-04-02T06:06:16.191Z,94.20
2018-04-02T06:08:19.768Z,94.10
2018-04-02T06:10:23.743Z,94.30
2018-04-02T06:12:27.772Z,94.40
2018-04-02T06:14:31.334Z,94.30
2018-04-02T06:16:34.951Z,94.40
2018-04-02T06:18:38.538Z,94.10
2018-04-02T06:20:42.854Z,94.40
2018-04-02T06:22:46.454Z,94.40
2018-04-02T06:24:50.063Z,94.30
2018-04-02T06:26:53.651Z,94.50
2018-04-02T06:28:58.310Z,94.20
2018-04-02T06:31:02.691Z,94.20
2018-04-02T06:33:06.349Z,94.40
2018-04-02T06:35:09.910Z,94.50
2018-04-02T06:37:14.285Z,94.70
2018-04-02T06:39:18.625Z,94.70
2018-04-02T06:41:22.216Z,94.70
2018-04-02T06:43:25.792Z,94.70
2018-04-02T06:45:30.150Z,94.60
2018-04-02T06:47:33.699Z,94.60
2018-04-02T06:49:37.320Z,94.60
2018-04-02T06:51:40.888Z,94.60
2018-04-02T06:53:44.467Z,94.80
2018-04-02T06:55:48.080Z,95.00
2018-04-02T06:57:52.414Z,94.50
2018-04-02T06:59:55.977Z,94.20
2018-04-02T07:01:59.568Z,94.40
2018-04-02T07:04:03.158Z,94.40
2018-04-02T07:06:07.491Z,94.70
2018-04-02T07:08:11.850Z,95.40
2018-04-02T07:10:15.342Z,95.40
2018-04-02T07:12:18.954Z,95.60
2018-04-02T07:14:22.529Z,95.60
2018-04-02T07:16:26.862Z,95.40
2018-04-02T07:18:30.421Z,95.40
2018-04-02T07:20:34.757Z,95.20
2018-04-02T07:22:38.452Z,95.20
2018-04-02T07:24:42.002Z,93.80
2018-04-02T07:26:46.293Z,94.10
2018-04-02T07:28:49.869Z,94.10
2018-04-02T07:30:53.420Z,94.00
2018-04-02T07:32:57.732Z,92.60
2018-04-02T07:35:01.257Z,92.60
2018-04-02T07:37:04.794Z,92.30
2018-04-02T07:39:08.704Z,92.00
2018-04-02T07:41:12.267Z,92.60
2018-04-02T07:43:15.882Z,91.50
2018-04-02T07:45:19.513Z,92.30
2018-04-02T07:47:23.049Z,91.60
2018-04-02T07:49:26.680Z,91.70
2018-04-02T07:51:30.238Z,92.60
2018-04-02T07:53:33.808Z,92.00
2018-04-02T07:55:38.316Z,91.20
2018-04-02T07:57:41.873Z,91.10
2018-04-02T07:59:45.498Z,91.50
2018-04-02T08:01:49.058Z,90.50
2018-04-02T08:03:52.651Z,91.50
2018-04-02T08:05:56.223Z,92.90
2018-04-02T08:07:59.812Z,91.60
2018-04-02T08:10:03.661Z,90.80
2018-04-02T08:12:07.503Z,89.60
2018-04-02T08:14:11.063Z,89.50
2018-04-02T08:16:14.662Z,89.10
2018-04-02T08:18:18.945Z,88.90
2018-04-02T08:20:22.586Z,88.90
2018-04-02T08:22:26.213Z,89.50
2018-04-02T08:24:30.544Z,89.50
2018-04-02T08:26:34.101Z,89.40
2018-04-02T08:28:37.703Z,88.20
2018-04-02T08:30:41.279Z,88.20
2018-04-02T08:32:44.895Z,87.80
2018-04-02T08:34:48.484Z,90.70
2018-04-02T08:36:52.060Z,90.00
2018-04-02T08:38:55.659Z,89.20
2018-04-02T08:40:59.298Z,87.40
2018-04-02T08:43:03.701Z,86.60
2018-04-02T08:45:07.209Z,86.60
2018-04-02T08:47:11.534Z,87.50
2018-04-02T08:49:15.857Z,86.00
2018-04-02T08:51:19.401Z,86.00
2018-04-02T08:53:22.964Z,85.50
2018-04-02T08:55:26.552Z,86.00
2018-04-02T08:57:30.135Z,86.10
2018-04-02T08:59:34.622Z,85.30
2018-04-02T09:01:38.273Z,85.30
2018-04-02T09:03:41.798Z,84.50
2018-04-02T09:05:45.436Z,86.20
2018-04-02T09:07:49.733Z,85.20
2018-04-02T09:09:53.340Z,85.20
2018-04-02T09:11:57.638Z,84.50
2018-04-02T09:14:01.235Z,84.50
2018-04-02T09:16:05.605Z,83.00
2018-04-02T09:18:10.460Z,82.90
2018-04-02T09:20:14.178Z,83.00
2018-04-02T09:22:18.576Z,82.10
2018-04-02T09:24:22.171Z,82.00
2018-04-02T09:26:25.775Z,82.30
2018-04-02T09:28:29.360Z,81.10
2018-04-02T09:30:33.295Z,80.90
2018-04-02T09:32:39.583Z,79.20
2018-04-02T09:34:43.236Z,79.20
2018-04-02T09:36:47.616Z,82.00
2018-04-02T09:38:51.870Z,81.30
2018-04-02T09:40:55.505Z,80.70
2018-04-02T09:42:59.107Z,81.80
2018-04-02T09:45:02.808Z,79.60
2018-04-02T09:47:07.541Z,80.80
2018-04-02T09:49:11.093Z,81.50
2018-04-02T09:51:15.449Z,80.30
2018-04-02T09:53:19.233Z,80.30
2018-04-02T09:55:22.774Z,77.40
2018-04-02T09:57:26.339Z,79.50
2018-04-02T09:59:29.969Z,80.30
2018-04-02T10:01:35.927Z,80.40
2018-04-02T10:03:40.180Z,81.10
2018-04-02T10:05:43.763Z,79.50
2018-04-02T10:07:47.353Z,80.00
2018-04-02T10:09:51.784Z,80.40
2018-04-02T10:11:55.390Z,81.10
2018-04-02T10:13:58.993Z,80.60
2018-04-02T10:16:04.017Z,80.40
2018-04-02T10:18:07.604Z,77.40
2018-04-02T10:20:11.261Z,78.70
2018-04-02T10:22:14.825Z,79.40
2018-04-02T10:24:18.380Z,78.90
2018-04-02T10:26:22.225Z,79.10
2018-04-02T10:28:25.798Z,78.40
2018-04-02T10:30:30.142Z,79.30
2018-04-02T10:32:33.765Z,79.30
2018-04-02T10:34:37.282Z,77.40
2018-04-02T10:36:41.598Z,77.40
2018-04-02T10:38:45.938Z,78.60
2018-04-02T10:40:49.499Z,78.40
2018-04-02T10:42:53.097Z,78.80
2018-04-02T10:44:56.598Z,78.40
2018-04-02T10:47:00.941Z,79.60
2018-04-02T10:49:04.547Z,79.50
2018-04-02T10:51:08.128Z,78.10
2018-04-02T10:53:11.664Z,78.50
2018-04-02T10:55:16.017Z,79.80
2018-04-02T10:57:19.630Z,79.00
2018-04-02T10:59:23.926Z,80.00
2018-04-02T11:01:28.221Z,78.70
2018-04-02T11:03:32.574Z,77.90
2018-04-02T11:05:36.155Z,78.00
2018-04-02T11:07:39.707Z,78.20
2018-04-02T11:09:43.260Z,77.80
2018-04-02T11:11:50.626Z,77.10
2018-04-02T11:13:55.266Z,79.30
2018-04-02T11:15:58.950Z,79.30
2018-04-02T11:18:02.642Z,77.50
2018-04-02T11:20:06.241Z,79.70
2018-04-02T11:22:10.588Z,80.20
2018-04-02T11:24:14.178Z,80.20
2018-04-02T11:26:17.889Z,79.60
2018-04-02T11:28:21.466Z,80.80
2018-04-02T11:30:25.085Z,80.30
2018-04-02T11:32:28.671Z,79.60
2018-04-02T11:34:32.551Z,79.60
2018-04-02T11:36:38.275Z,80.00
2018-04-02T11:38:42.585Z,79.50
2018-04-02T11:40:46.184Z,79.50
2018-04-02T11:42:49.723Z,80.00
2018-04-02T11:44:53.317Z,79.70
2018-04-02T11:46:57.039Z,80.60
2018-04-02T11:49:00.626Z,80.30
2018-04-02T11:51:04.199Z,79.40
2018-04-02T11:53:08.562Z,79.40
2018-04-02T11:55:12.176Z,79.30
2018-04-02T11:57:15.756Z,79.00
2018-04-02T11:59:19.287Z,78.10
2018-04-02T12:01:23.671Z,79.00
2018-04-02T12:03:27.188Z,79.00
2018-04-02T12:05:30.776Z,79.70
2018-04-02T12:07:34.320Z,79.80
2018-04-02T12:09:37.857Z,79.20
2018-04-02T12:11:41.462Z,78.80
2018-04-02T12:13:44.989Z,79.80
2018-04-02T12:15:49.332Z,79.10
2018-04-02T12:17:52.909Z,79.10
2018-04-02T12:19:56.478Z,78.50
2018-04-02T12:22:00.015Z,80.50
2018-04-02T12:24:03.609Z,80.70
2018-04-02T12:26:07.243Z,80.30
2018-04-02T12:28:11.605Z,78.90
2018-04-02T12:30:15.177Z,78.80
2018-04-02T12:32:19.969Z,78.80
2018-04-02T12:34:23.596Z,78.70
2018-04-02T12:36:27.183Z,78.40
2018-04-02T12:38:31.739Z,79.10
2018-04-02T12:40:35.290Z,77.80
2018-04-02T12:42:39.596Z,78.40
2018-04-02T12:44:43.155Z,78.30
2018-04-02T12:46:46.699Z,77.20
2018-04-02T12:48:50.288Z,76.90
2018-04-02T12:50:53.839Z,77.80
2018-04-02T12:52:57.353Z,77.80
2018-04-02T12:55:00.913Z,78.10
2018-04-02T12:57:05.233Z,78.10
2018-04-02T12:59:09.523Z,78.10
2018-04-02T13:01:13.841Z,78.40
2018-04-02T13:03:18.136Z,75.80
2018-04-02T13:05:21.716Z,75.70
2018-04-02T13:07:25.317Z,78.50
2018-04-02T13:09:28.841Z,78.50
2018-04-02T13:11:33.177Z,77.60
2018-04-02T13:13:36.724Z,77.50
2018-04-02T13:15:40.283Z,80.00
2018-04-02T13:17:43.861Z,79.00
2018-04-02T13:19:47.430Z,78.70
2018-04-02T13:21:51.012Z,78.20
2018-04-02T13:23:54.536Z,78.80
2018-04-02T13:25:58.866Z,80.00
2018-04-02T13:28:02.448Z,80.00
2018-04-02T13:30:06.752Z,83.50
2018-04-02T13:32:10.344Z,83.30
2018-04-02T13:34:13.873Z,82.00
2018-04-02T13:36:17.452Z,82.10
2018-04-02T13:38:21.834Z,81.50
2018-04-02T13:40:25.429Z,81.50
2018-04-02T13:42:28.983Z,80.60
2018-04-02T13:44:32.963Z,82.40
2018-04-02T13:46:37.329Z,82.10
2018-04-02T13:48:40.897Z,82.00
2018-04-02T13:50:44.553Z,82.40
2018-04-02T13:52:48.056Z,81.20
2018-04-02T13:54:51.591Z,81.90
2018-04-02T13:56:55.188Z,79.80
2018-04-02T13:58:59.608Z,81.80
2018-04-02T14:01:04.010Z,81.40
2018-04-02T14:03:07.618Z,81.40
2018-04-02T14:05:11.303Z,81.60
2018-04-02T14:07:14.852Z,79.80
2018-04-02T14:09:18.444Z,80.30
2018-04-02T14:11:22.048Z,80.80
2018-04-02T14:13:25.656Z,83.30
2018-04-02T14:15:29.213Z,82.00
2018-04-02T14:17:32.763Z,82.60
2018-04-02T14:19:37.211Z,81.70
2018-04-02T14:21:40.834Z,81.60
2018-04-02T14:23:44.357Z,81.20
2018-04-02T14:25:47.914Z,81.10
2018-04-02T14:27:51.490Z,82.50
2018-04-02T14:29:55.157Z,82.30
2018-04-02T14:31:58.663Z,82.20
2018-04-02T14:34:03.037Z,80.90
2018-04-02T14:36:07.432Z,81.50
2018-04-02T14:38:10.986Z,81.50
2018-04-02T14:40:15.289Z,81.30
2018-04-02T14:42:18.889Z,81.40
2018-04-02T14:44:23.199Z,77.40
2018-04-02T14:46:27.529Z,75.00
2018-04-02T14:48:31.145Z,74.90
2018-04-02T14:50:34.715Z,73.20
2018-04-02T14:52:38.317Z,73.30
2018-04-02T14:54:42.776Z,72.10
2018-04-02T14:56:47.112Z,75.50
2018-04-02T14:58:51.005Z,74.80
2018-04-02T15:00:54.585Z,75.20
2018-04-02T15:02:58.938Z,75.90
2018-04-02T15:05:03.329Z,75.30
2018-04-02T15:07:06.924Z,75.20
2018-04-02T15:09:10.965Z,76.50
2018-04-02T15:11:15.294Z,75.20
2018-04-02T15:13:19.830Z,75.10
2018-04-02T15:15:23.681Z,76.90
2018-04-02T15:17:27.325Z,78.40
2018-04-02T15:52:23.023Z,77.50
2018-04-02T15:54:26.499Z,77.80
2018-04-02T15:56:30.233Z,78.50
2018-04-02T15:58:33.732Z,77.70
2018-04-02T16:00:37.192Z,77.40
2018-04-02T16:02:40.760Z,77.60
2018-04-02T16:04:45.066Z,77.90
2018-04-02T16:06:49.449Z,78.00
2018-04-02T16:08:53.024Z,78.00
2018-04-02T16:10:56.616Z,77.80
2018-04-02T16:13:00.961Z,77.00
2018-04-02T16:15:04.574Z,76.80
2018-04-02T16:17:08.459Z,77.70
2018-04-02T16:19:12.076Z,77.30
2018-04-02T16:21:15.586Z,77.30
2018-04-02T16:23:19.159Z,77.20
2018-04-02T16:25:22.769Z,77.30
2018-04-02T16:27:26.350Z,77.40
2018-04-02T16:29:29.935Z,77.10
2018-04-02T16:31:34.274Z,78.00
2018-04-02T16:33:37.828Z,78.00
2018-04-02T16:35:42.189Z,78.20
2018-04-02T16:37:45.742Z,78.00
2018-04-02T16:39:49.330Z,78.30
2018-04-02T16:41:53.678Z,80.00
2018-04-02T16:43:57.284Z,80.00
2018-04-02T16:46:00.886Z,80.40
2018-04-02T16:48:04.445Z,82.60
2018-04-02T16:50:08.781Z,81.40
2018-04-02T16:52:12.320Z,81.40
2018-04-02T16:54:15.892Z,80.30
2018-04-02T16:56:19.466Z,81.00
2018-04-02T16:58:23.075Z,81.70
2018-04-02T17:00:26.649Z,82.30
2018-04-02T17:02:30.217Z,81.20
2018-04-02T17:04:34.588Z,81.70
2018-04-02T17:06:38.117Z,81.60
2018-04-02T17:08:42.479Z,80.90
2018-04-02T17:10:46.082Z,80.80
2018-04-02T17:12:49.662Z,82.40
2018-04-02T17:14:53.254Z,81.50
2018-04-02T17:16:56.866Z,82.20
2018-04-02T17:19:00.445Z,81.60
2018-04-02T17:21:04.835Z,80.80
2018-04-02T17:23:08.380Z,80.80
2018-04-02T17:25:12.008Z,81.10
2018-04-02T17:27:15.611Z,81.40
2018-04-02T17:29:19.212Z,82.00
2018-04-02T17:31:22.781Z,81.70
2018-04-02T17:33:26.337Z,80.90
2018-04-02T17:35:30.705Z,82.10
2018-04-02T17:37:34.260Z,81.90
2018-04-02T17:39:37.783Z,82.20
2018-04-02T17:41:41.382Z,81.50
2018-04-02T17:43:44.962Z,81.20
2018-04-02T17:45:48.567Z,81.20
2018-04-02T17:47:52.329Z,81.00
2018-04-02T17:49:56.624Z,81.50
2018-04-02T17:52:00.158Z,81.50
2018-04-02T17:54:03.775Z,80.70
2018-04-02T17:56:07.352Z,81.30
2018-04-02T17:58:11.644Z,81.10
2018-04-02T18:00:15.301Z,81.60
2018-04-02T18:02:18.857Z,82.80
2018-04-02T18:04:22.406Z,81.50
2018-04-02T18:06:26.021Z,81.50
2018-04-02T18:08:29.548Z,83.10
2018-04-02T18:10:33.604Z,83.40
2018-04-02T18:12:38.223Z,82.40
2018-04-02T18:14:42.285Z,82.40
2018-04-02T18:16:47.125Z,82.80
2018-04-02T18:18:51.159Z,82.70
2018-04-02T18:20:55.515Z,82.10
2018-04-02T18:22:59.843Z,81.40
2018-04-02T18:25:03.819Z,81.40
2018-04-02T18:27:08.184Z,83.10
2018-04-02T18:29:11.755Z,82.90
2018-04-02T18:31:16.130Z,83.70
2018-04-02T18:33:19.646Z,83.70
2018-04-02T18:35:23.221Z,84.40
2018-04-02T18:37:26.786Z,84.50
2018-04-02T18:39:30.373Z,84.70
2018-04-02T18:41:33.958Z,84.40
2018-04-02T18:43:37.565Z,84.60
2018-04-02T18:45:41.111Z,84.90
2018-04-02T18:59:57.904Z,84.50
2018-04-02T19:02:02.145Z,83.90
2018-04-02T19:04:05.681Z,83.80
2018-04-02T19:06:09.185Z,83.40
2018-04-02T19:08:12.690Z,83.40
2018-04-02T19:10:16.190Z,82.30
2018-04-02T19:12:19.684Z,82.50
2018-04-02T19:14:23.216Z,82.70
2018-04-02T19:31:14.231Z,81.80
2018-04-02T19:33:17.704Z,82.50
2018-04-02T19:35:21.214Z,82.00
2018-04-02T19:37:24.730Z,82.50
2018-04-02T19:39:28.200Z,82.20
2018-04-02T19:41:31.700Z,81.70
2018-04-02T19:43:35.172Z,81.40
2018-04-02T19:45:38.712Z,81.60
2018-04-02T19:47:43.150Z,82.20
2018-04-02T19:49:47.452Z,81.90
2018-04-02T19:51:51.762Z,81.60
2018-04-02T19:53:56.081Z,82.30
2018-04-02T19:56:00.441Z,82.10
2018-04-02T19:58:03.973Z,82.10
2018-04-02T20:00:07.610Z,81.90
2018-04-02T20:02:11.236Z,82.40
2018-04-02T20:04:14.738Z,81.80
2018-04-02T20:06:18.641Z,81.60
2018-04-02T20:08:22.211Z,82.00
2018-04-02T20:10:25.797Z,82.00
2018-04-02T20:12:29.363Z,82.50
2018-04-02T20:14:32.897Z,82.60
2018-04-02T20:16:36.517Z,82.30
2018-04-02T20:18:40.080Z,81.80
2018-04-02T20:20:43.672Z,82.80
2018-04-02T20:22:47.209Z,82.70
2018-04-02T20:24:50.739Z,82.40
2018-04-02T20:26:55.468Z,82.20
2018-04-02T20:28:59.758Z,82.20
2018-04-02T20:31:03.285Z,82.20
2018-04-02T20:33:07.263Z,81.50
2018-04-02T20:35:11.611Z,81.00
2018-04-02T20:37:15.170Z,81.50
2018-04-02T20:39:18.773Z,81.20
2018-04-02T20:41:22.346Z,80.70
2018-04-02T20:43:25.900Z,81.00
2018-04-02T20:45:29.464Z,80.80
2018-04-02T20:47:33.806Z,81.00
2018-04-02T20:49:37.386Z,80.70
2018-04-02T20:51:42.095Z,80.50
2018-04-02T20:53:45.635Z,80.50
2018-04-02T20:55:49.219Z,80.30
2018-04-02T20:57:52.783Z,80.40
2018-04-02T20:59:57.156Z,80.50
2018-04-02T21:02:00.697Z,80.50
2018-04-02T21:04:05.058Z,80.90
2018-04-02T21:06:08.574Z,80.90
2018-04-02T21:08:12.089Z,80.50
2018-04-02T21:10:15.727Z,80.70
2018-04-02T21:12:20.169Z,81.00
2018-04-02T21:14:23.676Z,80.90
2018-04-02T21:16:27.219Z,81.00
2018-04-02T21:18:30.810Z,81.00
2018-04-02T21:20:35.114Z,81.40
2018-04-02T21:22:39.517Z,82.10
2018-04-02T21:24:43.061Z,81.30
2018-04-02T21:26:46.619Z,81.40
2018-04-02T21:28:50.974Z,79.50
2018-04-02T21:30:54.533Z,79.40
2018-04-02T21:32:58.821Z,79.50
2018-04-02T21:35:02.414Z,80.10
2018-04-02T21:37:05.969Z,78.80
2018-04-02T21:39:09.520Z,79.70
2018-04-02T21:41:13.900Z,80.50
2018-04-02T21:43:17.844Z,80.40
2018-04-02T21:45:21.369Z,81.30
2018-04-02T21:47:24.961Z,80.80
2018-04-02T21:49:28.548Z,80.80
2018-04-02T21:51:32.903Z,80.80
2018-04-02T21:53:36.417Z,80.80
2018-04-02T21:55:40.044Z,79.70
2018-04-02T21:57:44.391Z,83.30
2018-04-02T21:59:47.892Z,83.10
2018-04-02T22:01:51.478Z,82.90
2018-04-02T22:03:55.045Z,83.50
2018-04-02T22:05:58.598Z,82.50
2018-04-02T22:08:10.034Z,82.50
2018-04-02T22:10:14.339Z,83.70
2018-04-02T22:12:18.703Z,82.80
2018-04-02T22:14:22.220Z,82.30
2018-04-02T22:16:25.835Z,82.60
2018-04-02T22:18:29.386Z,86.70
2018-04-02T22:20:32.956Z,83.00
2018-04-02T22:22:36.525Z,85.90
2018-04-02T22:24:40.132Z,83.30
2018-04-02T22:26:43.781Z,83.20
2018-04-02T22:28:47.370Z,87.60
2018-04-02T22:30:50.976Z,87.50
2018-04-02T22:32:55.320Z,84.70
2018-04-02T22:34:58.841Z,84.90
2018-04-02T22:37:03.221Z,86.20
2018-04-02T22:39:07.805Z,86.00
2018-04-02T22:41:11.416Z,85.50
2018-04-02T22:43:15.629Z,85.10
2018-04-02T22:45:20.208Z,82.70
2018-04-02T22:47:23.818Z,82.70
2018-04-02T22:49:27.334Z,83.10
2018-04-02T22:51:30.917Z,82.80
2018-04-02T22:53:34.573Z,87.40
2018-04-02T22:55:38.928Z,83.60
2018-04-02T22:57:42.500Z,83.60
2018-04-02T22:59:46.892Z,84.00
2018-04-02T23:01:51.191Z,86.50
2018-04-02T23:03:55.551Z,85.40
2018-04-02T23:05:59.217Z,85.30
2018-04-02T23:08:02.766Z,84.10
2018-04-02T23:10:06.344Z,85.70
2018-04-02T23:12:09.949Z,86.30
2018-04-02T23:14:13.516Z,84.60
2018-04-02T23:16:17.906Z,83.90
2018-04-02T23:18:21.504Z,83.90
2018-04-02T23:20:25.057Z,84.20
2018-04-02T23:22:41.288Z,87.10
2018-04-02T23:24:44.780Z,86.30
2018-04-02T23:26:48.353Z,84.80
2018-04-02T23:28:51.931Z,85.40
2018-04-02T23:30:55.463Z,87.80
2018-04-02T23:32:59.074Z,87.50
2018-04-02T23:35:02.600Z,88.70
2018-04-02T23:37:06.956Z,86.70
2018-04-02T23:39:10.529Z,86.60
2018-04-02T23:41:14.829Z,86.10
2018-04-02T23:43:19.129Z,85.90
2018-04-02T23:45:22.688Z,85.70
2018-04-02T23:47:26.261Z,84.80
2018-04-02T23:49:29.846Z,85.60
2018-04-02T23:51:33.412Z,90.90
2018-04-02T23:53:36.943Z,89.20
2018-04-02T23:55:40.538Z,90.00
2018-04-02T23:57:44.090Z,85.40
2018-04-02T23:59:47.628Z,86.20
